sensor_id;sensor_type;location;lat;lon;timestamp;P1;durP1;ratioP1;P2;durP2;ratioP2
45650;SDS011;31365;48.858;8.530;2022-10-18T00:02:09;2.83;;;1.95;;
45650;SDS011;31365;48.858;8.530;2022-10-18T00:04:37;2.65;;;2.30;;
45650;SDS011;31365;48.858;8.530;2022-10-18T00:07:06;4.05;;;2.28;;
45650;SDS011;31365;48.858;8.530;2022-10-18T00:09:34;3.20;;;2.10;;
45650;SDS011;31365;48.858;8.530;2022-10-18T00:12:02;3.30;;;2.20;;
45650;SDS011;31365;48.858;8.530;2022-10-18T00:14:31;3.33;;;2.20;;
45650;SDS011;31365;48.858;8.530;2022-10-18T00:17:01;4.18;;;2.10;;
45650;SDS011;31365;48.858;8.530;2022-10-18T00:19:29;6.78;;;2.58;;
45650;SDS011;31365;48.858;8.530;2022-10-18T00:21:58;3.05;;;2.45;;
45650;SDS011;31365;48.858;8.530;2022-10-18T00:24:26;4.05;;;2.38;;
45650;SDS011;31365;48.858;8.530;2022-10-18T00:26:55;3.70;;;2.20;;
45650;SDS011;31365;48.858;8.530;2022-10-18T00:29:24;7.18;;;2.40;;
45650;SDS011;31365;48.858;8.530;2022-10-18T00:31:52;4.75;;;2.60;;
45650;SDS011;31365;48.858;8.530;2022-10-18T00:34:22;3.42;;;2.20;;
45650;SDS011;31365;48.858;8.530;2022-10-18T00:36:51;3.75;;;2.50;;
45650;SDS011;31365;48.858;8.530;2022-10-18T00:39:20;4.75;;;2.33;;
45650;SDS011;31365;48.858;8.530;2022-10-18T00:41:49;4.28;;;2.35;;
45650;SDS011;31365;48.858;8.530;2022-10-18T00:47:28;5.18;;;2.60;;
45650;SDS011;31365;48.858;8.530;2022-10-18T00:50:01;4.50;;;2.80;;
45650;SDS011;31365;48.858;8.530;2022-10-18T00:52:33;4.80;;;2.60;;
45650;SDS011;31365;48.858;8.530;2022-10-18T00:55:06;9.38;;;2.90;;
45650;SDS011;31365;48.858;8.530;2022-10-18T00:57:36;5.53;;;2.40;;
45650;SDS011;31365;48.858;8.530;2022-10-18T01:00:08;3.10;;;2.20;;
45650;SDS011;31365;48.858;8.530;2022-10-18T01:02:40;3.70;;;2.60;;
45650;SDS011;31365;48.858;8.530;2022-10-18T01:05:12;3.58;;;2.15;;
45650;SDS011;31365;48.858;8.530;2022-10-18T01:07:50;3.15;;;2.30;;
45650;SDS011;31365;48.858;8.530;2022-10-18T01:10:48;2.90;;;2.20;;
45650;SDS011;31365;48.858;8.530;2022-10-18T01:13:31;6.10;;;2.47;;
45650;SDS011;31365;48.858;8.530;2022-10-18T01:16:15;4.90;;;2.55;;
45650;SDS011;31365;48.858;8.530;2022-10-18T01:18:52;2.58;;;2.38;;
45650;SDS011;31365;48.858;8.530;2022-10-18T01:21:33;2.50;;;2.10;;
45650;SDS011;31365;48.858;8.530;2022-10-18T01:33:15;5.00;;;2.72;;
45650;SDS011;31365;48.858;8.530;2022-10-18T01:35:55;3.22;;;2.53;;
45650;SDS011;31365;48.858;8.530;2022-10-18T01:38:36;5.23;;;3.00;;
45650;SDS011;31365;48.858;8.530;2022-10-18T01:41:08;2.53;;;2.13;;
45650;SDS011;31365;48.858;8.530;2022-10-18T01:43:41;4.13;;;2.67;;
45650;SDS011;31365;48.858;8.530;2022-10-18T01:46:15;4.47;;;2.20;;
45650;SDS011;31365;48.858;8.530;2022-10-18T01:48:49;3.70;;;2.67;;
45650;SDS011;31365;48.858;8.530;2022-10-18T01:51:22;4.80;;;2.92;;
45650;SDS011;31365;48.858;8.530;2022-10-18T01:53:52;3.53;;;2.45;;
45650;SDS011;31365;48.858;8.530;2022-10-18T01:56:23;3.42;;;2.53;;
45650;SDS011;31365;48.858;8.530;2022-10-18T01:59:05;6.32;;;2.60;;
45650;SDS011;31365;48.858;8.530;2022-10-18T02:02:04;3.92;;;2.40;;
45650;SDS011;31365;48.858;8.530;2022-10-18T02:04:48;6.25;;;2.95;;
45650;SDS011;31365;48.858;8.530;2022-10-18T02:07:26;5.32;;;2.53;;
45650;SDS011;31365;48.858;8.530;2022-10-18T02:10:03;5.47;;;2.30;;
45650;SDS011;31365;48.858;8.530;2022-10-18T02:12:38;8.27;;;2.58;;
45650;SDS011;31365;48.858;8.530;2022-10-18T02:15:11;3.20;;;2.00;;
45650;SDS011;31365;48.858;8.530;2022-10-18T02:17:46;4.70;;;2.10;;
45650;SDS011;31365;48.858;8.530;2022-10-18T02:20:16;4.47;;;2.45;;
45650;SDS011;31365;48.858;8.530;2022-10-18T02:22:50;8.25;;;2.40;;
45650;SDS011;31365;48.858;8.530;2022-10-18T02:25:24;8.83;;;2.73;;
45650;SDS011;31365;48.858;8.530;2022-10-18T02:27:58;5.95;;;2.78;;
45650;SDS011;31365;48.858;8.530;2022-10-18T02:30:27;5.35;;;2.63;;
45650;SDS011;31365;48.858;8.530;2022-10-18T02:33:30;6.20;;;2.70;;
45650;SDS011;31365;48.858;8.530;2022-10-18T02:36:06;5.07;;;2.13;;
45650;SDS011;31365;48.858;8.530;2022-10-18T02:38:43;3.50;;;2.33;;
45650;SDS011;31365;48.858;8.530;2022-10-18T02:41:20;4.30;;;2.30;;
45650;SDS011;31365;48.858;8.530;2022-10-18T02:43:50;5.38;;;2.40;;
45650;SDS011;31365;48.858;8.530;2022-10-18T02:46:19;3.03;;;2.10;;
45650;SDS011;31365;48.858;8.530;2022-10-18T02:48:49;4.97;;;2.60;;
45650;SDS011;31365;48.858;8.530;2022-10-18T02:51:17;7.00;;;2.70;;
45650;SDS011;31365;48.858;8.530;2022-10-18T02:53:45;7.40;;;2.53;;
45650;SDS011;31365;48.858;8.530;2022-10-18T02:56:14;5.88;;;2.20;;
45650;SDS011;31365;48.858;8.530;2022-10-18T02:58:43;4.10;;;2.30;;
45650;SDS011;31365;48.858;8.530;2022-10-18T03:01:11;4.20;;;2.13;;
45650;SDS011;31365;48.858;8.530;2022-10-18T03:03:39;4.32;;;2.45;;
45650;SDS011;31365;48.858;8.530;2022-10-18T03:06:09;5.72;;;2.30;;
45650;SDS011;31365;48.858;8.530;2022-10-18T03:08:37;5.18;;;2.42;;
45650;SDS011;31365;48.858;8.530;2022-10-18T03:11:06;4.87;;;2.20;;
45650;SDS011;31365;48.858;8.530;2022-10-18T03:13:34;4.68;;;2.42;;
45650;SDS011;31365;48.858;8.530;2022-10-18T03:16:03;4.85;;;2.50;;
45650;SDS011;31365;48.858;8.530;2022-10-18T03:18:32;5.55;;;2.50;;
45650;SDS011;31365;48.858;8.530;2022-10-18T03:21:02;5.97;;;2.72;;
45650;SDS011;31365;48.858;8.530;2022-10-18T03:23:33;5.73;;;2.63;;
45650;SDS011;31365;48.858;8.530;2022-10-18T03:26:02;4.25;;;2.60;;
45650;SDS011;31365;48.858;8.530;2022-10-18T03:28:30;4.65;;;2.33;;
45650;SDS011;31365;48.858;8.530;2022-10-18T03:30:58;4.60;;;2.63;;
45650;SDS011;31365;48.858;8.530;2022-10-18T03:33:28;3.75;;;2.45;;
45650;SDS011;31365;48.858;8.530;2022-10-18T03:35:57;3.80;;;2.47;;
45650;SDS011;31365;48.858;8.530;2022-10-18T03:38:26;4.03;;;2.03;;
45650;SDS011;31365;48.858;8.530;2022-10-18T03:40:56;3.53;;;2.30;;
45650;SDS011;31365;48.858;8.530;2022-10-18T03:43:24;5.90;;;2.78;;
45650;SDS011;31365;48.858;8.530;2022-10-18T03:45:52;3.75;;;2.42;;
45650;SDS011;31365;48.858;8.530;2022-10-18T03:48:21;4.95;;;2.53;;
45650;SDS011;31365;48.858;8.530;2022-10-18T03:50:50;5.05;;;2.42;;
45650;SDS011;31365;48.858;8.530;2022-10-18T03:53:18;5.53;;;2.95;;
45650;SDS011;31365;48.858;8.530;2022-10-18T03:55:49;5.03;;;2.45;;
45650;SDS011;31365;48.858;8.530;2022-10-18T03:58:20;8.48;;;2.58;;
45650;SDS011;31365;48.858;8.530;2022-10-18T04:00:51;6.10;;;2.60;;
45650;SDS011;31365;48.858;8.530;2022-10-18T04:03:21;4.50;;;2.73;;
45650;SDS011;31365;48.858;8.530;2022-10-18T04:05:50;3.90;;;2.60;;
45650;SDS011;31365;48.858;8.530;2022-10-18T04:08:18;5.50;;;3.33;;
45650;SDS011;31365;48.858;8.530;2022-10-18T04:10:46;5.47;;;3.30;;
45650;SDS011;31365;48.858;8.530;2022-10-18T04:13:14;5.03;;;3.80;;
45650;SDS011;31365;48.858;8.530;2022-10-18T04:15:44;5.15;;;3.33;;
45650;SDS011;31365;48.858;8.530;2022-10-18T04:18:13;6.82;;;3.67;;
45650;SDS011;31365;48.858;8.530;2022-10-18T04:20:41;5.35;;;3.00;;
45650;SDS011;31365;48.858;8.530;2022-10-18T04:23:10;7.47;;;3.30;;
45650;SDS011;31365;48.858;8.530;2022-10-18T04:25:38;7.35;;;3.00;;
45650;SDS011;31365;48.858;8.530;2022-10-18T04:28:06;5.80;;;2.90;;
45650;SDS011;31365;48.858;8.530;2022-10-18T04:30:34;4.78;;;3.08;;
45650;SDS011;31365;48.858;8.530;2022-10-18T04:33:04;4.30;;;2.97;;
45650;SDS011;31365;48.858;8.530;2022-10-18T04:35:32;2.97;;;2.50;;
45650;SDS011;31365;48.858;8.530;2022-10-18T04:38:00;7.10;;;2.90;;
45650;SDS011;31365;48.858;8.530;2022-10-18T04:40:29;5.03;;;2.60;;
45650;SDS011;31365;48.858;8.530;2022-10-18T04:42:57;4.80;;;2.58;;
45650;SDS011;31365;48.858;8.530;2022-10-18T04:45:26;5.07;;;2.47;;
45650;SDS011;31365;48.858;8.530;2022-10-18T04:47:54;6.60;;;2.78;;
45650;SDS011;31365;48.858;8.530;2022-10-18T04:50:23;3.70;;;2.40;;
45650;SDS011;31365;48.858;8.530;2022-10-18T04:52:52;5.73;;;2.40;;
45650;SDS011;31365;48.858;8.530;2022-10-18T04:55:20;7.93;;;3.00;;
45650;SDS011;31365;48.858;8.530;2022-10-18T04:57:49;4.70;;;2.88;;
45650;SDS011;31365;48.858;8.530;2022-10-18T05:00:17;5.50;;;2.30;;
45650;SDS011;31365;48.858;8.530;2022-10-18T05:02:45;4.18;;;2.75;;
45650;SDS011;31365;48.858;8.530;2022-10-18T05:05:13;4.60;;;2.83;;
45650;SDS011;31365;48.858;8.530;2022-10-18T05:07:43;5.15;;;3.00;;
45650;SDS011;31365;48.858;8.530;2022-10-18T05:10:11;8.60;;;3.10;;
45650;SDS011;31365;48.858;8.530;2022-10-18T05:12:40;5.90;;;2.58;;
45650;SDS011;31365;48.858;8.530;2022-10-18T05:15:09;7.80;;;2.83;;
45650;SDS011;31365;48.858;8.530;2022-10-18T05:17:37;11.25;;;3.10;;
45650;SDS011;31365;48.858;8.530;2022-10-18T05:20:06;4.22;;;2.50;;
45650;SDS011;31365;48.858;8.530;2022-10-18T05:22:36;12.57;;;3.50;;
45650;SDS011;31365;48.858;8.530;2022-10-18T05:25:06;5.80;;;2.83;;
45650;SDS011;31365;48.858;8.530;2022-10-18T05:27:35;3.58;;;2.45;;
45650;SDS011;31365;48.858;8.530;2022-10-18T05:30:04;5.10;;;2.55;;
45650;SDS011;31365;48.858;8.530;2022-10-18T05:32:34;3.88;;;2.75;;
45650;SDS011;31365;48.858;8.530;2022-10-18T05:35:03;4.65;;;2.75;;
45650;SDS011;31365;48.858;8.530;2022-10-18T05:37:32;4.18;;;2.67;;
45650;SDS011;31365;48.858;8.530;2022-10-18T05:40:00;5.82;;;3.13;;
45650;SDS011;31365;48.858;8.530;2022-10-18T05:42:30;5.43;;;3.10;;
45650;SDS011;31365;48.858;8.530;2022-10-18T05:44:59;4.10;;;2.80;;
45650;SDS011;31365;48.858;8.530;2022-10-18T05:47:27;4.63;;;3.17;;
45650;SDS011;31365;48.858;8.530;2022-10-18T05:49:56;5.10;;;2.92;;
45650;SDS011;31365;48.858;8.530;2022-10-18T05:52:24;4.18;;;3.28;;
45650;SDS011;31365;48.858;8.530;2022-10-18T05:54:53;4.30;;;3.70;;
45650;SDS011;31365;48.858;8.530;2022-10-18T05:57:21;5.03;;;3.63;;
45650;SDS011;31365;48.858;8.530;2022-10-18T05:59:51;4.75;;;3.22;;
45650;SDS011;31365;48.858;8.530;2022-10-18T06:02:20;7.47;;;3.13;;
45650;SDS011;31365;48.858;8.530;2022-10-18T06:04:48;4.95;;;2.90;;
45650;SDS011;31365;48.858;8.530;2022-10-18T06:07:17;5.27;;;3.17;;
45650;SDS011;31365;48.858;8.530;2022-10-18T06:09:45;8.85;;;3.33;;
45650;SDS011;31365;48.858;8.530;2022-10-18T06:12:14;5.00;;;2.78;;
45650;SDS011;31365;48.858;8.530;2022-10-18T06:14:42;5.20;;;3.03;;
45650;SDS011;31365;48.858;8.530;2022-10-18T06:17:12;6.45;;;3.13;;
45650;SDS011;31365;48.858;8.530;2022-10-18T06:19:41;5.38;;;3.03;;
45650;SDS011;31365;48.858;8.530;2022-10-18T06:22:10;7.22;;;3.90;;
45650;SDS011;31365;48.858;8.530;2022-10-18T06:24:39;7.63;;;4.30;;
45650;SDS011;31365;48.858;8.530;2022-10-18T06:27:07;6.28;;;3.38;;
45650;SDS011;31365;48.858;8.530;2022-10-18T06:29:36;4.28;;;3.35;;
45650;SDS011;31365;48.858;8.530;2022-10-18T06:32:06;8.23;;;3.40;;
45650;SDS011;31365;48.858;8.530;2022-10-18T06:34:36;7.47;;;3.30;;
45650;SDS011;31365;48.858;8.530;2022-10-18T06:37:05;4.10;;;3.17;;
45650;SDS011;31365;48.858;8.530;2022-10-18T06:39:33;4.10;;;3.08;;
45650;SDS011;31365;48.858;8.530;2022-10-18T06:42:02;5.63;;;2.83;;
45650;SDS011;31365;48.858;8.530;2022-10-18T06:44:32;4.22;;;2.80;;
45650;SDS011;31365;48.858;8.530;2022-10-18T06:47:01;4.87;;;3.27;;
45650;SDS011;31365;48.858;8.530;2022-10-18T06:49:29;6.13;;;3.20;;
45650;SDS011;31365;48.858;8.530;2022-10-18T06:51:59;6.93;;;4.15;;
45650;SDS011;31365;48.858;8.530;2022-10-18T06:54:28;3.43;;;3.10;;
45650;SDS011;31365;48.858;8.530;2022-10-18T06:56:56;6.18;;;3.08;;
45650;SDS011;31365;48.858;8.530;2022-10-18T06:59:25;6.60;;;4.00;;
45650;SDS011;31365;48.858;8.530;2022-10-18T07:01:56;5.77;;;3.33;;
45650;SDS011;31365;48.858;8.530;2022-10-18T07:04:26;7.43;;;4.18;;
45650;SDS011;31365;48.858;8.530;2022-10-18T07:06:56;5.50;;;3.80;;
45650;SDS011;31365;48.858;8.530;2022-10-18T07:09:25;10.83;;;5.00;;
45650;SDS011;31365;48.858;8.530;2022-10-18T07:11:54;11.38;;;4.97;;
45650;SDS011;31365;48.858;8.530;2022-10-18T07:14:22;10.95;;;5.47;;
45650;SDS011;31365;48.858;8.530;2022-10-18T07:16:54;8.82;;;4.30;;
45650;SDS011;31365;48.858;8.530;2022-10-18T07:19:26;7.82;;;4.70;;
45650;SDS011;31365;48.858;8.530;2022-10-18T07:21:54;11.27;;;3.80;;
45650;SDS011;31365;48.858;8.530;2022-10-18T07:24:23;10.05;;;4.82;;
45650;SDS011;31365;48.858;8.530;2022-10-18T07:26:52;7.15;;;4.53;;
45650;SDS011;31365;48.858;8.530;2022-10-18T07:29:20;8.50;;;3.92;;
45650;SDS011;31365;48.858;8.530;2022-10-18T07:31:48;21.83;;;9.10;;
45650;SDS011;31365;48.858;8.530;2022-10-18T07:34:17;9.80;;;5.10;;
45650;SDS011;31365;48.858;8.530;2022-10-18T07:36:46;7.10;;;3.42;;
45650;SDS011;31365;48.858;8.530;2022-10-18T07:39:14;6.40;;;3.60;;
45650;SDS011;31365;48.858;8.530;2022-10-18T07:41:43;8.32;;;3.50;;
45650;SDS011;31365;48.858;8.530;2022-10-18T07:44:13;8.00;;;3.30;;
45650;SDS011;31365;48.858;8.530;2022-10-18T07:46:41;6.20;;;3.00;;
45650;SDS011;31365;48.858;8.530;2022-10-18T07:49:09;6.30;;;3.35;;
45650;SDS011;31365;48.858;8.530;2022-10-18T07:51:37;6.07;;;2.85;;
45650;SDS011;31365;48.858;8.530;2022-10-18T07:54:06;5.13;;;3.10;;
45650;SDS011;31365;48.858;8.530;2022-10-18T07:56:35;6.30;;;2.70;;
45650;SDS011;31365;48.858;8.530;2022-10-18T07:59:03;3.67;;;2.75;;
45650;SDS011;31365;48.858;8.530;2022-10-18T08:01:33;8.82;;;3.13;;
45650;SDS011;31365;48.858;8.530;2022-10-18T08:04:01;5.35;;;2.90;;
45650;SDS011;31365;48.858;8.530;2022-10-18T08:06:34;6.82;;;3.30;;
45650;SDS011;31365;48.858;8.530;2022-10-18T08:09:02;6.22;;;3.00;;
45650;SDS011;31365;48.858;8.530;2022-10-18T08:11:31;6.10;;;2.57;;
45650;SDS011;31365;48.858;8.530;2022-10-18T08:13:59;9.50;;;3.40;;
45650;SDS011;31365;48.858;8.530;2022-10-18T08:16:28;7.05;;;3.67;;
45650;SDS011;31365;48.858;8.530;2022-10-18T08:18:59;6.10;;;3.00;;
45650;SDS011;31365;48.858;8.530;2022-10-18T08:21:27;4.57;;;2.80;;
45650;SDS011;31365;48.858;8.530;2022-10-18T08:23:56;4.53;;;3.15;;
45650;SDS011;31365;48.858;8.530;2022-10-18T08:26:24;6.60;;;3.40;;
45650;SDS011;31365;48.858;8.530;2022-10-18T08:28:52;6.90;;;4.05;;
45650;SDS011;31365;48.858;8.530;2022-10-18T08:31:41;6.07;;;3.05;;
45650;SDS011;31365;48.858;8.530;2022-10-18T08:34:10;2.78;;;2.53;;
45650;SDS011;31365;48.858;8.530;2022-10-18T08:36:45;4.67;;;2.90;;
45650;SDS011;31365;48.858;8.530;2022-10-18T08:39:13;5.95;;;3.05;;
45650;SDS011;31365;48.858;8.530;2022-10-18T08:41:58;6.10;;;3.30;;
45650;SDS011;31365;48.858;8.530;2022-10-18T08:44:44;5.40;;;3.03;;
45650;SDS011;31365;48.858;8.530;2022-10-18T08:47:15;7.80;;;2.87;;
45650;SDS011;31365;48.858;8.530;2022-10-18T08:49:49;5.10;;;3.00;;
45650;SDS011;31365;48.858;8.530;2022-10-18T08:52:27;4.00;;;2.80;;
45650;SDS011;31365;48.858;8.530;2022-10-18T08:55:02;5.88;;;3.03;;
45650;SDS011;31365;48.858;8.530;2022-10-18T08:57:38;5.43;;;3.30;;
45650;SDS011;31365;48.858;8.530;2022-10-18T09:00:10;4.65;;;2.80;;
45650;SDS011;31365;48.858;8.530;2022-10-18T09:02:47;5.23;;;3.00;;
45650;SDS011;31365;48.858;8.530;2022-10-18T09:05:33;4.60;;;3.00;;
45650;SDS011;31365;48.858;8.530;2022-10-18T09:11:23;4.33;;;2.70;;
45650;SDS011;31365;48.858;8.530;2022-10-18T09:17:55;4.53;;;2.60;;
45650;SDS011;31365;48.858;8.530;2022-10-18T09:20:49;4.95;;;3.08;;
45650;SDS011;31365;48.858;8.530;2022-10-18T09:23:25;4.40;;;2.92;;
45650;SDS011;31365;48.858;8.530;2022-10-18T09:26:12;5.85;;;2.78;;
45650;SDS011;31365;48.858;8.530;2022-10-18T09:28:47;3.95;;;2.50;;
45650;SDS011;31365;48.858;8.530;2022-10-18T09:31:37;5.00;;;2.60;;
45650;SDS011;31365;48.858;8.530;2022-10-18T09:34:18;4.93;;;2.60;;
45650;SDS011;31365;48.858;8.530;2022-10-18T09:36:59;4.32;;;2.40;;
45650;SDS011;31365;48.858;8.530;2022-10-18T09:39:29;6.28;;;2.88;;
45650;SDS011;31365;48.858;8.530;2022-10-18T09:42:02;4.55;;;2.60;;
45650;SDS011;31365;48.858;8.530;2022-10-18T09:44:38;5.18;;;2.88;;
45650;SDS011;31365;48.858;8.530;2022-10-18T09:47:15;4.72;;;2.33;;
45650;SDS011;31365;48.858;8.530;2022-10-18T09:49:51;5.70;;;2.67;;
45650;SDS011;31365;48.858;8.530;2022-10-18T09:52:26;3.60;;;2.20;;
45650;SDS011;31365;48.858;8.530;2022-10-18T09:55:07;6.28;;;2.95;;
45650;SDS011;31365;48.858;8.530;2022-10-18T09:57:44;3.60;;;2.73;;
45650;SDS011;31365;48.858;8.530;2022-10-18T10:00:21;4.28;;;2.55;;
45650;SDS011;31365;48.858;8.530;2022-10-18T10:02:54;4.65;;;2.88;;
45650;SDS011;31365;48.858;8.530;2022-10-18T10:05:23;6.55;;;2.53;;
45650;SDS011;31365;48.858;8.530;2022-10-18T10:07:55;4.82;;;2.80;;
45650;SDS011;31365;48.858;8.530;2022-10-18T10:10:28;4.83;;;2.50;;
45650;SDS011;31365;48.858;8.530;2022-10-18T10:13:02;4.33;;;2.53;;
45650;SDS011;31365;48.858;8.530;2022-10-18T10:15:32;4.70;;;2.60;;
45650;SDS011;31365;48.858;8.530;2022-10-18T10:18:15;5.63;;;2.80;;
45650;SDS011;31365;48.858;8.530;2022-10-18T10:20:49;8.50;;;2.65;;
45650;SDS011;31365;48.858;8.530;2022-10-18T10:23:22;4.05;;;2.40;;
45650;SDS011;31365;48.858;8.530;2022-10-18T10:25:55;3.95;;;2.33;;
45650;SDS011;31365;48.858;8.530;2022-10-18T10:28:28;5.95;;;2.60;;
45650;SDS011;31365;48.858;8.530;2022-10-18T10:31:15;6.70;;;2.65;;
45650;SDS011;31365;48.858;8.530;2022-10-18T10:33:59;5.32;;;2.38;;
45650;SDS011;31365;48.858;8.530;2022-10-18T10:36:30;3.88;;;2.08;;
45650;SDS011;31365;48.858;8.530;2022-10-18T10:39:05;4.75;;;2.60;;
45650;SDS011;31365;48.858;8.530;2022-10-18T10:41:38;4.45;;;2.40;;
45650;SDS011;31365;48.858;8.530;2022-10-18T10:44:12;4.07;;;2.55;;
45650;SDS011;31365;48.858;8.530;2022-10-18T10:46:43;5.65;;;2.55;;
45650;SDS011;31365;48.858;8.530;2022-10-18T10:49:15;4.38;;;2.55;;
45650;SDS011;31365;48.858;8.530;2022-10-18T10:52:05;5.18;;;2.50;;
45650;SDS011;31365;48.858;8.530;2022-10-18T10:54:54;4.25;;;2.45;;
45650;SDS011;31365;48.858;8.530;2022-10-18T10:57:47;5.30;;;2.50;;
45650;SDS011;31365;48.858;8.530;2022-10-18T12:24:31;4.78;;;1.52;;
45650;SDS011;31365;48.858;8.530;2022-10-18T14:17:00;3.63;;;2.08;;
45650;SDS011;31365;48.858;8.530;2022-10-18T14:19:44;2.65;;;1.88;;
45650;SDS011;31365;48.858;8.530;2022-10-18T14:22:19;4.25;;;2.70;;
45650;SDS011;31365;48.858;8.530;2022-10-18T14:24:52;3.08;;;2.45;;
45650;SDS011;31365;48.858;8.530;2022-10-18T14:27:24;4.30;;;1.83;;
45650;SDS011;31365;48.858;8.530;2022-10-18T14:30:08;2.40;;;1.92;;
45650;SDS011;31365;48.858;8.530;2022-10-18T14:32:43;6.50;;;2.15;;
45650;SDS011;31365;48.858;8.530;2022-10-18T14:35:15;6.38;;;2.30;;
45650;SDS011;31365;48.858;8.530;2022-10-18T14:37:58;6.38;;;2.55;;
45650;SDS011;31365;48.858;8.530;2022-10-18T14:40:34;3.83;;;2.10;;
45650;SDS011;31365;48.858;8.530;2022-10-18T14:43:08;6.13;;;2.28;;
45650;SDS011;31365;48.858;8.530;2022-10-18T14:45:39;3.58;;;2.28;;
45650;SDS011;31365;48.858;8.530;2022-10-18T14:48:15;3.97;;;1.90;;
45650;SDS011;31365;48.858;8.530;2022-10-18T14:50:48;3.78;;;2.10;;
45650;SDS011;31365;48.858;8.530;2022-10-18T14:53:26;9.15;;;2.15;;
45650;SDS011;31365;48.858;8.530;2022-10-18T14:56:02;5.97;;;2.83;;
45650;SDS011;31365;48.858;8.530;2022-10-18T14:58:33;2.72;;;2.22;;
45650;SDS011;31365;48.858;8.530;2022-10-18T15:01:03;6.68;;;2.72;;
45650;SDS011;31365;48.858;8.530;2022-10-18T15:03:34;4.28;;;2.80;;
45650;SDS011;31365;48.858;8.530;2022-10-18T15:06:03;2.63;;;1.92;;
45650;SDS011;31365;48.858;8.530;2022-10-18T15:08:34;4.25;;;2.20;;
45650;SDS011;31365;48.858;8.530;2022-10-18T15:11:07;5.13;;;3.05;;
45650;SDS011;31365;48.858;8.530;2022-10-18T15:13:41;3.35;;;2.10;;
45650;SDS011;31365;48.858;8.530;2022-10-18T15:16:16;10.05;;;2.67;;
45650;SDS011;31365;48.858;8.530;2022-10-18T15:19:01;3.75;;;2.42;;
45650;SDS011;31365;48.858;8.530;2022-10-18T15:21:33;6.18;;;2.58;;
45650;SDS011;31365;48.858;8.530;2022-10-18T15:24:18;6.47;;;2.30;;
45650;SDS011;31365;48.858;8.530;2022-10-18T15:26:57;2.95;;;2.00;;
45650;SDS011;31365;48.858;8.530;2022-10-18T15:29:34;3.72;;;2.25;;
45650;SDS011;31365;48.858;8.530;2022-10-18T15:32:04;4.20;;;2.22;;
45650;SDS011;31365;48.858;8.530;2022-10-18T15:34:44;2.72;;;2.35;;
45650;SDS011;31365;48.858;8.530;2022-10-18T15:37:16;8.65;;;2.75;;
45650;SDS011;31365;48.858;8.530;2022-10-18T15:43:03;3.33;;;2.20;;
45650;SDS011;31365;48.858;8.530;2022-10-18T15:45:49;3.00;;;2.33;;
45650;SDS011;31365;48.858;8.530;2022-10-18T15:48:21;4.63;;;2.67;;
45650;SDS011;31365;48.858;8.530;2022-10-18T15:50:53;2.30;;;2.10;;
45650;SDS011;31365;48.858;8.530;2022-10-18T15:53:31;6.00;;;2.40;;
45650;SDS011;31365;48.858;8.530;2022-10-18T15:56:09;7.93;;;2.67;;
45650;SDS011;31365;48.858;8.530;2022-10-18T15:58:56;3.63;;;2.75;;
45650;SDS011;31365;48.858;8.530;2022-10-18T16:01:30;2.63;;;2.40;;
45650;SDS011;31365;48.858;8.530;2022-10-18T16:04:06;5.03;;;2.47;;
45650;SDS011;31365;48.858;8.530;2022-10-18T16:06:44;6.93;;;2.75;;
45650;SDS011;31365;48.858;8.530;2022-10-18T16:09:14;2.40;;;2.05;;
45650;SDS011;31365;48.858;8.530;2022-10-18T16:11:45;8.13;;;2.80;;
45650;SDS011;31365;48.858;8.530;2022-10-18T16:14:22;3.97;;;2.38;;
45650;SDS011;31365;48.858;8.530;2022-10-18T16:16:54;6.22;;;3.05;;
45650;SDS011;31365;48.858;8.530;2022-10-18T16:19:26;3.92;;;3.08;;
45650;SDS011;31365;48.858;8.530;2022-10-18T16:21:56;4.45;;;2.80;;
45650;SDS011;31365;48.858;8.530;2022-10-18T16:24:31;5.55;;;3.03;;
45650;SDS011;31365;48.858;8.530;2022-10-18T16:27:00;5.20;;;3.80;;
45650;SDS011;31365;48.858;8.530;2022-10-18T16:29:28;5.50;;;3.72;;
45650;SDS011;31365;48.858;8.530;2022-10-18T16:31:58;6.47;;;4.00;;
45650;SDS011;31365;48.858;8.530;2022-10-18T16:34:27;5.70;;;3.55;;
45650;SDS011;31365;48.858;8.530;2022-10-18T16:36:59;7.50;;;3.55;;
45650;SDS011;31365;48.858;8.530;2022-10-18T16:39:28;5.60;;;2.78;;
45650;SDS011;31365;48.858;8.530;2022-10-18T16:42:00;4.15;;;2.90;;
45650;SDS011;31365;48.858;8.530;2022-10-18T16:44:28;7.28;;;3.65;;
45650;SDS011;31365;48.858;8.530;2022-10-18T16:46:56;4.80;;;3.95;;
45650;SDS011;31365;48.858;8.530;2022-10-18T16:49:24;5.75;;;3.35;;
45650;SDS011;31365;48.858;8.530;2022-10-18T16:51:54;6.10;;;3.22;;
45650;SDS011;31365;48.858;8.530;2022-10-18T16:54:24;4.07;;;3.22;;
45650;SDS011;31365;48.858;8.530;2022-10-18T16:56:52;3.95;;;3.40;;
45650;SDS011;31365;48.858;8.530;2022-10-18T16:59:22;4.10;;;3.25;;
45650;SDS011;31365;48.858;8.530;2022-10-18T17:01:54;5.13;;;3.28;;
45650;SDS011;31365;48.858;8.530;2022-10-18T17:04:22;4.95;;;3.25;;
45650;SDS011;31365;48.858;8.530;2022-10-18T17:06:51;4.05;;;3.00;;
45650;SDS011;31365;48.858;8.530;2022-10-18T17:09:25;4.32;;;3.30;;
45650;SDS011;31365;48.858;8.530;2022-10-18T17:11:53;7.07;;;5.57;;
45650;SDS011;31365;48.858;8.530;2022-10-18T17:14:22;9.95;;;6.13;;
45650;SDS011;31365;48.858;8.530;2022-10-18T17:16:50;7.70;;;5.22;;
45650;SDS011;31365;48.858;8.530;2022-10-18T17:19:22;6.93;;;6.30;;
45650;SDS011;31365;48.858;8.530;2022-10-18T17:21:50;8.63;;;6.03;;
45650;SDS011;31365;48.858;8.530;2022-10-18T17:24:19;25.00;;;5.45;;
45650;SDS011;31365;48.858;8.530;2022-10-18T17:26:49;7.18;;;4.15;;
45650;SDS011;31365;48.858;8.530;2022-10-18T17:29:17;10.88;;;5.30;;
45650;SDS011;31365;48.858;8.530;2022-10-18T17:31:46;7.13;;;4.53;;
45650;SDS011;31365;48.858;8.530;2022-10-18T17:34:14;11.63;;;4.25;;
45650;SDS011;31365;48.858;8.530;2022-10-18T17:36:46;9.43;;;5.30;;
45650;SDS011;31365;48.858;8.530;2022-10-18T17:39:15;7.50;;;4.90;;
45650;SDS011;31365;48.858;8.530;2022-10-18T17:41:43;7.32;;;5.00;;
45650;SDS011;31365;48.858;8.530;2022-10-18T17:44:12;11.30;;;5.70;;
45650;SDS011;31365;48.858;8.530;2022-10-18T17:46:41;7.15;;;5.15;;
45650;SDS011;31365;48.858;8.530;2022-10-18T17:49:09;10.88;;;6.50;;
45650;SDS011;31365;48.858;8.530;2022-10-18T17:51:39;14.07;;;10.73;;
45650;SDS011;31365;48.858;8.530;2022-10-18T17:54:08;9.57;;;7.80;;
45650;SDS011;31365;48.858;8.530;2022-10-18T17:56:36;8.18;;;7.13;;
45650;SDS011;31365;48.858;8.530;2022-10-18T17:59:06;9.38;;;6.70;;
45650;SDS011;31365;48.858;8.530;2022-10-18T18:01:35;9.68;;;7.88;;
45650;SDS011;31365;48.858;8.530;2022-10-18T18:04:04;16.90;;;10.45;;
45650;SDS011;31365;48.858;8.530;2022-10-18T18:06:33;11.27;;;10.10;;
45650;SDS011;31365;48.858;8.530;2022-10-18T18:09:05;8.35;;;7.60;;
45650;SDS011;31365;48.858;8.530;2022-10-18T18:11:38;7.43;;;6.18;;
45650;SDS011;31365;48.858;8.530;2022-10-18T18:14:09;6.25;;;5.63;;
45650;SDS011;31365;48.858;8.530;2022-10-18T18:16:40;10.98;;;8.70;;
45650;SDS011;31365;48.858;8.530;2022-10-18T18:19:11;7.47;;;6.78;;
45650;SDS011;31365;48.858;8.530;2022-10-18T18:21:41;5.22;;;4.72;;
45650;SDS011;31365;48.858;8.530;2022-10-18T18:24:10;4.78;;;4.13;;
45650;SDS011;31365;48.858;8.530;2022-10-18T18:26:40;7.80;;;5.00;;
45650;SDS011;31365;48.858;8.530;2022-10-18T18:29:10;8.40;;;5.40;;
45650;SDS011;31365;48.858;8.530;2022-10-18T18:31:41;4.68;;;4.25;;
45650;SDS011;31365;48.858;8.530;2022-10-18T18:34:11;7.80;;;5.22;;
45650;SDS011;31365;48.858;8.530;2022-10-18T18:36:39;8.68;;;7.80;;
45650;SDS011;31365;48.858;8.530;2022-10-18T18:39:09;7.38;;;6.68;;
45650;SDS011;31365;48.858;8.530;2022-10-18T18:41:48;7.20;;;6.50;;
45650;SDS011;31365;48.858;8.530;2022-10-18T18:44:19;5.28;;;4.60;;
45650;SDS011;31365;48.858;8.530;2022-10-18T18:46:51;5.65;;;5.05;;
45650;SDS011;31365;48.858;8.530;2022-10-18T18:49:19;5.35;;;4.85;;
45650;SDS011;31365;48.858;8.530;2022-10-18T18:51:47;7.50;;;3.92;;
45650;SDS011;31365;48.858;8.530;2022-10-18T18:54:15;5.53;;;5.03;;